Time;durP1;ratioP1;P1;durP2;ratioP2;P2;SDS_P1;SDS_P2;PMS_P1;PMS_P2;Temp;Humidity;BMP_temperature;BMP_pressure;BME280_temperature;BME280_humidity;BME280_pressure;Samples;Min_cycle;Max_cycle;Signal;HPM_P1;HPM_P2
2023/08/03 00:02:03;;;;;;;;;;;20.80;89.60;;;;;;4154965;28;20403;-49
2023/08/03 00:04:44;;;;;;;;;;;20.80;89.60;;;;;;4156180;28;20601;-48
2023/08/03 00:07:24;;;;;;;;;;;20.80;89.60;;;;;;4146055;28;19952;-50
2023/08/03 00:10:05;;;;;;;;;;;20.80;89.70;;;;;;4155663;28;20498;-48
2023/08/03 00:12:46;;;;;;;;;;;20.80;90.20;;;;;;4156316;28;19932;-49
2023/08/03 00:15:27;;;;;;;;;;;20.80;89.70;;;;;;4156508;28;19948;-49
2023/08/03 00:18:09;;;;;;;;;;;20.80;89.70;;;;;;4155533;28;20071;-49
2023/08/03 00:20:50;;;;;;;;;;;20.80;89.80;;;;;;4144119;28;19974;-52
2023/08/03 00:23:30;;;;;;;;;;;20.80;89.80;;;;;;4156539;28;19936;-50
2023/08/03 00:26:11;;;;;;;;;;;20.80;89.90;;;;;;4167567;28;20017;-49
2023/08/03 00:28:52;;;;;;;;;;;20.80;89.90;;;;;;4188242;28;20026;-49
2023/08/03 00:31:33;;;;;;;;;;;20.80;89.90;;;;;;4176508;28;20025;-49
2023/08/03 00:34:15;;;;;;;;;;;20.80;89.90;;;;;;4176733;28;20295;-50
2023/08/03 00:36:57;;;;;;;;;;;20.80;90.00;;;;;;4188981;28;19931;-49
2023/08/03 00:39:37;;;;;;;;;;;20.80;90.00;;;;;;4176127;28;20013;-52
2023/08/03 00:42:18;;;;;;;;;;;20.80;90.00;;;;;;4179932;28;19932;-50
2023/08/03 00:44:59;;;;;;;;;;;20.80;90.00;;;;;;4170928;28;19977;-49
2023/08/03 00:47:40;;;;;;;;;;;20.80;90.00;;;;;;4169605;28;19935;-49
2023/08/03 00:50:22;;;;;;;;;;;20.80;90.00;;;;;;4158526;28;19931;-50
2023/08/03 00:53:03;;;;;;;;;;;20.80;90.00;;;;;;4159735;28;20387;-50
2023/08/03 00:55:44;;;;;;;;;;;20.80;90.10;;;;;;4172244;28;20062;-50
2023/08/03 00:58:24;;;;;;;;;;;20.70;90.10;;;;;;4187938;28;20062;-50
2023/08/03 01:01:05;;;;;;;;;;;20.70;90.10;;;;;;4187397;28;19936;-50
2023/08/03 01:03:46;;;;;;;;;;;20.70;90.10;;;;;;4158981;28;19974;-50
2023/08/03 01:06:28;;;;;;;;;;;20.70;90.10;;;;;;4188483;28;19931;-50
2023/08/03 01:09:09;;;;;;;;;;;20.70;90.10;;;;;;4188954;28;20074;-49
2023/08/03 01:11:49;;;;;;;;;;;20.70;90.20;;;;;;4171370;28;20462;-50
2023/08/03 01:14:30;;;;;;;;;;;20.70;90.20;;;;;;4188621;28;19935;-50
2023/08/03 01:17:11;;;;;;;;;;;20.70;90.20;;;;;;4184199;28;20049;-51
2023/08/03 01:19:52;;;;;;;;;;;20.70;90.30;;;;;;4163513;28;20320;-50
2023/08/03 01:22:38;;;;;;;;;;;20.70;90.70;;;;;;4142698;28;19936;-51
2023/08/03 01:25:19;;;;;;;;;;;20.70;90.30;;;;;;4155199;28;19978;-50
2023/08/03 01:27:59;;;;;;;;;;;20.70;90.70;;;;;;4154907;28;19936;-50
2023/08/03 01:30:40;;;;;;;;;;;20.70;90.30;;;;;;4155210;28;19975;-49
2023/08/03 01:33:21;;;;;;;;;;;20.70;90.40;;;;;;4154694;28;19932;-49
2023/08/03 01:36:02;;;;;;;;;;;20.70;90.40;;;;;;4170381;28;20061;-49
2023/08/03 01:38:45;;;;;;;;;;;20.70;90.40;;;;;;4188062;28;19977;-49
2023/08/03 01:41:26;;;;;;;;;;;20.70;90.40;;;;;;4187280;28;19931;-49
2023/08/03 01:44:27;;;;;;;;;;;20.70;90.40;;;;;;4175771;28;19935;-51
2023/08/03 01:47:09;;;;;;;;;;;20.70;90.40;;;;;;4187666;28;19940;-52
2023/08/03 01:49:50;;;;;;;;;;;20.70;90.40;;;;;;4183125;28;20054;-49
2023/08/03 01:52:31;;;;;;;;;;;20.70;90.50;;;;;;4168614;28;19936;-51
2023/08/03 01:55:13;;;;;;;;;;;20.70;90.50;;;;;;4165655;28;19932;-48
2023/08/03 01:57:54;;;;;;;;;;;20.70;90.50;;;;;;4142514;28;19935;-50
2023/08/03 02:00:35;;;;;;;;;;;20.70;90.50;;;;;;4165309;28;19955;-50
2023/08/03 02:03:16;;;;;;;;;;;20.70;90.50;;;;;;4171271;28;19932;-49
2023/08/03 02:05:58;;;;;;;;;;;20.70;90.50;;;;;;4131459;28;20446;-50
2023/08/03 02:08:39;;;;;;;;;;;20.70;90.50;;;;;;4135470;28;19932;-49
2023/08/03 02:11:20;;;;;;;;;;;20.70;90.50;;;;;;4134953;28;20051;-50
2023/08/03 02:14:01;;;;;;;;;;;20.70;90.60;;;;;;4136391;28;20451;-49
2023/08/03 02:16:42;;;;;;;;;;;20.70;90.60;;;;;;4135882;28;19951;-51
2023/08/03 02:19:22;;;;;;;;;;;20.70;90.60;;;;;;4125072;28;20400;-50
2023/08/03 02:22:03;;;;;;;;;;;20.70;90.70;;;;;;4121706;28;19937;-51
2023/08/03 02:24:44;;;;;;;;;;;20.70;90.70;;;;;;4152436;28;19936;-52
2023/08/03 02:27:26;;;;;;;;;;;20.70;90.60;;;;;;4152140;28;19932;-51
2023/08/03 02:30:09;;;;;;;;;;;20.70;90.60;;;;;;4152677;28;19968;-52
2023/08/03 02:32:52;;;;;;;;;;;20.70;90.60;;;;;;4152084;28;19940;-50
2023/08/03 02:35:39;;;;;;;;;;;20.70;90.60;;;;;;4140861;28;20300;-50
2023/08/03 02:38:20;;;;;;;;;;;20.70;91.00;;;;;;4163925;28;19933;-50
2023/08/03 02:41:03;;;;;;;;;;;20.70;90.60;;;;;;4145929;28;20018;-50
2023/08/03 02:43:48;;;;;;;;;;;20.70;90.60;;;;;;4135886;28;19936;-50
2023/08/03 02:46:32;;;;;;;;;;;20.70;90.60;;;;;;4164740;28;20296;-50
2023/08/03 02:49:14;;;;;;;;;;;20.70;90.70;;;;;;4141376;28;19936;-50
2023/08/03 02:51:56;;;;;;;;;;;20.70;90.70;;;;;;4153043;28;19936;-50
2023/08/03 02:54:48;;;;;;;;;;;20.70;90.60;;;;;;4152993;28;19936;-49
2023/08/03 02:57:31;;;;;;;;;;;20.70;90.60;;;;;;4141312;28;19940;-50
2023/08/03 03:00:14;;;;;;;;;;;20.70;90.60;;;;;;4181405;28;20070;-50
2023/08/03 03:02:56;;;;;;;;;;;20.70;90.70;;;;;;4158160;28;20371;-53
2023/08/03 03:05:46;;;;;;;;;;;20.70;90.70;;;;;;4169599;28;19935;-49
2023/08/03 03:08:28;;;;;;;;;;;20.70;90.70;;;;;;4169985;28;19940;-50
2023/08/03 03:11:10;;;;;;;;;;;20.70;90.70;;;;;;4168908;28;19936;-50
2023/08/03 03:13:51;;;;;;;;;;;20.70;90.70;;;;;;4156655;28;20276;-50
2023/08/03 03:16:34;;;;;;;;;;;20.70;90.70;;;;;;4169612;28;19932;-51
2023/08/03 03:19:15;;;;;;;;;;;20.60;90.70;;;;;;4157864;28;19936;-50
2023/08/03 03:21:56;;;;;;;;;;;20.70;90.70;;;;;;4158117;28;19931;-50
2023/08/03 03:24:37;;;;;;;;;;;20.60;90.70;;;;;;4173765;28;20329;-50
2023/08/03 03:27:18;;;;;;;;;;;20.60;90.70;;;;;;4173115;28;20402;-50
2023/08/03 03:30:04;;;;;;;;;;;20.60;90.70;;;;;;4172125;28;19935;-51
2023/08/03 03:32:47;;;;;;;;;;;20.60;91.10;;;;;;4172152;28;19931;-50
2023/08/03 03:35:28;;;;;;;;;;;20.60;90.70;;;;;;4183285;28;20375;-50
2023/08/03 03:38:09;;;;;;;;;;;20.60;90.70;;;;;;4170896;28;19932;-49
2023/08/03 03:40:50;;;;;;;;;;;20.70;90.70;;;;;;4172525;28;20382;-49
2023/08/03 03:43:31;;;;;;;;;;;20.60;90.70;;;;;;4160877;28;19932;-49
2023/08/03 03:46:12;;;;;;;;;;;20.60;90.70;;;;;;4189664;28;19990;-49
2023/08/03 03:48:55;;;;;;;;;;;20.60;90.80;;;;;;4188631;28;20058;-49
2023/08/03 03:51:36;;;;;;;;;;;20.60;90.80;;;;;;4188725;28;19934;-49
2023/08/03 03:54:17;;;;;;;;;;;20.60;90.80;;;;;;4188789;28;19978;-50
2023/08/03 03:57:00;;;;;;;;;;;20.60;90.80;;;;;;4177007;28;19932;-50
2023/08/03 03:59:44;;;;;;;;;;;20.60;90.80;;;;;;4186810;28;19972;-50
2023/08/03 04:02:25;;;;;;;;;;;20.60;90.80;;;;;;4176957;28;19932;-50
2023/08/03 04:05:10;;;;;;;;;;;20.60;90.80;;;;;;4176990;28;19936;-49
2023/08/03 04:07:51;;;;;;;;;;;20.60;90.80;;;;;;4188353;28;19952;-50
2023/08/03 04:10:35;;;;;;;;;;;20.60;91.20;;;;;;4177113;28;19935;-52
2023/08/03 04:13:15;;;;;;;;;;;20.60;90.80;;;;;;4188954;28;19932;-53
2023/08/03 04:15:56;;;;;;;;;;;20.60;90.80;;;;;;4187599;28;20299;-50
2023/08/03 04:18:39;;;;;;;;;;;20.60;90.90;;;;;;4177361;28;20058;-50
2023/08/03 04:21:20;;;;;;;;;;;20.60;90.90;;;;;;4188813;28;20387;-53
2023/08/03 04:24:01;;;;;;;;;;;20.60;90.90;;;;;;4176979;28;19950;-50
2023/08/03 04:26:43;;;;;;;;;;;20.60;90.90;;;;;;4165615;28;19935;-52
2023/08/03 04:29:30;;;;;;;;;;;20.60;90.90;;;;;;4155685;28;20014;-50
2023/08/03 04:32:11;;;;;;;;;;;20.60;90.90;;;;;;4145137;28;19936;-51
2023/08/03 04:34:52;;;;;;;;;;;20.60;90.90;;;;;;4171812;28;19936;-48
2023/08/03 04:37:34;;;;;;;;;;;20.60;91.00;;;;;;4160650;28;19931;-56
2023/08/03 04:40:16;;;;;;;;;;;20.60;91.00;;;;;;4148629;28;20005;-52
2023/08/03 04:42:56;;;;;;;;;;;20.60;91.10;;;;;;4183179;28;19936;-49
2023/08/03 04:45:37;;;;;;;;;;;20.60;91.20;;;;;;4169958;28;19947;-51
2023/08/03 04:48:18;;;;;;;;;;;20.70;91.20;;;;;;4171788;28;19932;-50
2023/08/03 04:50:59;;;;;;;;;;;20.70;91.20;;;;;;4154135;28;19936;-51
2023/08/03 04:53:42;;;;;;;;;;;20.70;91.10;;;;;;4171608;28;19936;-51
2023/08/03 04:56:23;;;;;;;;;;;20.70;91.10;;;;;;4170914;28;20387;-51
2023/08/03 04:59:04;;;;;;;;;;;20.70;91.10;;;;;;4171402;28;20268;-51
2023/08/03 05:01:46;;;;;;;;;;;20.70;91.10;;;;;;4160164;28;20345;-51
2023/08/03 05:04:27;;;;;;;;;;;20.60;91.10;;;;;;4173255;28;19951;-53
2023/08/03 05:07:08;;;;;;;;;;;20.60;91.10;;;;;;4172464;28;19991;-51
2023/08/03 05:09:50;;;;;;;;;;;20.60;91.10;;;;;;4171429;28;20021;-53
2023/08/03 05:12:31;;;;;;;;;;;20.70;91.50;;;;;;4157681;28;20434;-54
2023/08/03 05:15:12;;;;;;;;;;;20.60;91.10;;;;;;4157869;28;20066;-57
2023/08/03 05:17:56;;;;;;;;;;;20.60;91.10;;;;;;4170045;28;19971;-54
2023/08/03 05:20:37;;;;;;;;;;;20.60;91.10;;;;;;4170289;28;19935;-52
2023/08/03 05:23:19;;;;;;;;;;;20.60;91.10;;;;;;4158208;28;19963;-51
2023/08/03 05:26:01;;;;;;;;;;;20.60;91.50;;;;;;4162240;28;20359;-51
2023/08/03 05:28:42;;;;;;;;;;;20.60;91.20;;;;;;4172044;28;20026;-51
2023/08/03 05:31:23;;;;;;;;;;;20.60;91.20;;;;;;4171581;28;19981;-51
2023/08/03 05:34:03;;;;;;;;;;;20.60;91.20;;;;;;4175986;28;19931;-54
2023/08/03 05:36:44;;;;;;;;;;;20.60;91.20;;;;;;4176572;28;19936;-54
2023/08/03 05:39:25;;;;;;;;;;;20.60;91.20;;;;;;4154391;28;19936;-53
2023/08/03 05:42:10;;;;;;;;;;;20.60;91.20;;;;;;4154706;28;19936;-51
2023/08/03 05:44:51;;;;;;;;;;;20.60;91.60;;;;;;4154795;28;19932;-54
2023/08/03 05:47:32;;;;;;;;;;;20.60;91.20;;;;;;4153861;28;20272;-54
2023/08/03 05:50:13;;;;;;;;;;;20.60;91.60;;;;;;4171758;28;20450;-51
2023/08/03 05:52:54;;;;;;;;;;;20.60;91.20;;;;;;4167806;28;19935;-54
2023/08/03 05:55:35;;;;;;;;;;;20.60;91.20;;;;;;4167915;28;19947;-55
2023/08/03 05:58:18;;;;;;;;;;;20.60;91.30;;;;;;4167933;28;19955;-51
2023/08/03 06:00:58;;;;;;;;;;;20.60;91.30;;;;;;4167480;28;19936;-52
2023/08/03 06:03:42;;;;;;;;;;;20.60;91.30;;;;;;4169278;28;19936;-54
2023/08/03 06:06:23;;;;;;;;;;;20.60;91.30;;;;;;4170664;28;20026;-50
2023/08/03 06:09:04;;;;;;;;;;;20.60;91.30;;;;;;4168311;28;20308;-51
2023/08/03 06:11:45;;;;;;;;;;;20.60;91.30;;;;;;4170431;28;19932;-53
2023/08/03 06:14:27;;;;;;;;;;;20.60;91.80;;;;;;4169702;28;20555;-53
2023/08/03 06:17:09;;;;;;;;;;;20.60;91.40;;;;;;4154169;28;19932;-51
2023/08/03 06:19:50;;;;;;;;;;;20.60;91.40;;;;;;4149843;28;19932;-51
2023/08/03 06:22:31;;;;;;;;;;;20.60;91.40;;;;;;4170902;28;19948;-49
2023/08/03 06:25:11;;;;;;;;;;;20.60;91.40;;;;;;4166737;28;19936;-52
2023/08/03 06:27:52;;;;;;;;;;;20.60;91.40;;;;;;4155013;28;19958;-50
2023/08/03 06:30:35;;;;;;;;;;;20.70;91.40;;;;;;4158261;28;19978;-51
2023/08/03 06:33:18;;;;;;;;;;;20.70;91.40;;;;;;4154572;28;19932;-52
2023/08/03 06:35:59;;;;;;;;;;;20.70;91.40;;;;;;4154995;28;19936;-50
2023/08/03 06:38:41;;;;;;;;;;;20.70;91.40;;;;;;4154137;28;20384;-51
2023/08/03 06:41:22;;;;;;;;;;;20.70;91.40;;;;;;4143167;28;20075;-50
2023/08/03 06:44:03;;;;;;;;;;;20.80;91.40;;;;;;4154261;28;19987;-50
2023/08/03 06:46:46;;;;;;;;;;;20.80;91.40;;;;;;4136679;28;19936;-50
2023/08/03 06:49:27;;;;;;;;;;;20.80;91.40;;;;;;4154585;28;19968;-51
2023/08/03 06:52:08;;;;;;;;;;;20.80;91.40;;;;;;4153037;28;19932;-50
2023/08/03 06:54:48;;;;;;;;;;;20.80;91.90;;;;;;4153660;28;19932;-51
2023/08/03 06:57:30;;;;;;;;;;;20.90;91.50;;;;;;4143762;28;19932;-50
2023/08/03 07:00:11;;;;;;;;;;;20.90;91.50;;;;;;4159685;28;19936;-51
2023/08/03 07:02:53;;;;;;;;;;;20.90;91.50;;;;;;4159149;28;19936;-54
2023/08/03 07:05:38;;;;;;;;;;;20.90;91.50;;;;;;4159152;28;19982;-52
2023/08/03 07:08:19;;;;;;;;;;;20.80;91.50;;;;;;4165933;28;19935;-51
2023/08/03 07:11:00;;;;;;;;;;;20.80;91.50;;;;;;4167873;28;20018;-49
2023/08/03 07:13:40;;;;;;;;;;;20.90;91.60;;;;;;4163440;28;20014;-49
2023/08/03 07:16:22;;;;;;;;;;;20.90;91.80;;;;;;4163491;28;20178;-53
2023/08/03 07:19:06;;;;;;;;;;;20.90;91.80;;;;;;4172646;28;19935;-50
2023/08/03 07:21:47;;;;;;;;;;;21.00;91.80;;;;;;4165927;28;20521;-49
2023/08/03 07:24:28;;;;;;;;;;;21.10;91.70;;;;;;4175638;28;19977;-53
2023/08/03 07:27:08;;;;;;;;;;;21.10;91.60;;;;;;4165114;28;19935;-53
2023/08/03 07:29:50;;;;;;;;;;;21.10;91.60;;;;;;4159466;28;20074;-51
2023/08/03 07:32:30;;;;;;;;;;;21.10;91.60;;;;;;4155845;28;19940;-50
2023/08/03 07:35:13;;;;;;;;;;;21.10;91.90;;;;;;4159354;28;20261;-51
2023/08/03 07:37:53;;;;;;;;;;;21.10;91.50;;;;;;4165330;28;19932;-52
2023/08/03 07:40:34;;;;;;;;;;;21.20;91.60;;;;;;4176140;28;20025;-51
2023/08/03 07:43:15;;;;;;;;;;;21.20;91.60;;;;;;4169043;28;19953;-53
2023/08/03 07:45:56;;;;;;;;;;;21.20;91.50;;;;;;4163086;28;19932;-50
2023/08/03 07:48:36;;;;;;;;;;;21.20;91.50;;;;;;4171702;28;20295;-52
2023/08/03 07:51:18;;;;;;;;;;;21.20;91.50;;;;;;4160722;28;19936;-51
2023/08/03 07:54:01;;;;;;;;;;;21.20;91.50;;;;;;4158505;28;19932;-54
2023/08/03 07:56:42;;;;;;;;;;;21.20;91.40;;;;;;4153981;28;20067;-51
2023/08/03 07:59:23;;;;;;;;;;;21.20;91.50;;;;;;4148247;28;19967;-50
2023/08/03 08:02:04;;;;;;;;;;;21.20;91.50;;;;;;4160277;28;19932;-50
2023/08/03 08:04:48;;;;;;;;;;;21.10;91.40;;;;;;4164502;28;20074;-50
2023/08/03 08:07:31;;;;;;;;;;;21.20;91.50;;;;;;4164929;28;20391;-54
2023/08/03 08:10:12;;;;;;;;;;;21.20;91.50;;;;;;4157145;28;19935;-51
2023/08/03 08:12:53;;;;;;;;;;;21.20;91.50;;;;;;4158228;28;19978;-50
2023/08/03 08:15:34;;;;;;;;;;;21.20;91.50;;;;;;4172354;28;19950;-50
2023/08/03 08:18:15;;;;;;;;;;;21.20;91.50;;;;;;4156162;28;19936;-51
2023/08/03 08:20:56;;;;;;;;;;;21.30;91.50;;;;;;4144079;28;19940;-50
2023/08/03 08:23:39;;;;;;;;;;;21.30;91.80;;;;;;4140145;28;19940;-52
2023/08/03 08:26:20;;;;;;;;;;;21.40;91.30;;;;;;4156177;28;19937;-51
2023/08/03 08:29:01;;;;;;;;;;;21.40;91.30;;;;;;4156202;28;20396;-51
2023/08/03 08:31:45;;;;;;;;;;;21.40;91.20;;;;;;4139550;28;20399;-50
2023/08/03 08:34:34;;;;;;;;;;;21.40;91.20;;;;;;4146991;28;19948;-53
2023/08/03 08:37:14;;;;;;;;;;;21.40;91.10;;;;;;4137478;28;19940;-53
2023/08/03 08:39:57;;;;;;;;;;;21.50;91.20;;;;;;4156462;28;19932;-53
2023/08/03 08:42:39;;;;;;;;;;;21.50;91.10;;;;;;4140184;28;19933;-50
2023/08/03 08:45:20;;;;;;;;;;;21.50;91.00;;;;;;4155923;28;19936;-52
2023/08/03 08:48:01;;;;;;;;;;;21.50;91.00;;;;;;4156408;28;20014;-49
2023/08/03 08:50:44;;;;;;;;;;;21.50;90.90;;;;;;4155180;28;19935;-53
2023/08/03 08:53:28;;;;;;;;;;;21.50;90.80;;;;;;4153782;28;20287;-52
2023/08/03 08:56:11;;;;;;;;;;;21.50;90.70;;;;;;4154155;28;19941;-50
2023/08/03 08:59:11;;;;;;;;;;;21.50;90.70;;;;;;4154560;28;19936;-50
2023/08/03 09:01:56;;;;;;;;;;;21.60;90.60;;;;;;4147298;28;20064;-50
2023/08/03 09:04:37;;;;;;;;;;;21.60;90.60;;;;;;4155333;28;19986;-53
2023/08/03 09:07:17;;;;;;;;;;;21.70;90.50;;;;;;4155351;28;20063;-52
2023/08/03 09:10:01;;;;;;;;;;;21.70;90.80;;;;;;4139043;28;20009;-53
2023/08/03 09:12:43;;;;;;;;;;;21.70;90.30;;;;;;4154866;28;19932;-50
2023/08/03 09:15:36;;;;;;;;;;;21.70;90.20;;;;;;4168487;28;19936;-51
2023/08/03 09:18:16;;;;;;;;;;;21.70;90.20;;;;;;4170681;28;19931;-50
2023/08/03 09:21:10;;;;;;;;;;;21.70;90.10;;;;;;4171203;28;20006;-50
2023/08/03 09:23:55;;;;;;;;;;;21.70;90.10;;;;;;4170252;28;19935;-50
2023/08/03 09:26:41;;;;;;;;;;;21.70;90.00;;;;;;4172159;28;20059;-51
2023/08/03 09:29:31;;;;;;;;;;;21.70;90.00;;;;;;4171994;28;20268;-50
2023/08/03 09:32:12;;;;;;;;;;;21.70;90.40;;;;;;4171779;28;19935;-51
2023/08/03 09:34:56;;;;;;;;;;;21.70;90.00;;;;;;4169244;28;20026;-52
2023/08/03 09:37:38;;;;;;;;;;;21.70;90.00;;;;;;4172138;28;19991;-53
2023/08/03 09:40:23;;;;;;;;;;;21.80;90.00;;;;;;4172070;28;19962;-49
2023/08/03 09:43:04;;;;;;;;;;;21.70;90.00;;;;;;4171934;28;19936;-50
2023/08/03 09:45:47;;;;;;;;;;;21.70;89.90;;;;;;4171741;28;19936;-51
2023/08/03 09:48:28;;;;;;;;;;;21.70;89.90;;;;;;4171904;28;19936;-53
2023/08/03 09:51:09;;;;;;;;;;;21.70;89.80;;;;;;4171811;28;20292;-53
2023/08/03 09:53:53;;;;;;;;;;;21.70;89.90;;;;;;4170866;28;19932;-53
2023/08/03 09:56:59;;;;;;;;;;;21.70;90.00;;;;;;4170759;28;19932;-50
2023/08/03 09:59:44;;;;;;;;;;;21.70;90.00;;;;;;4171655;28;20079;-54
2023/08/03 10:02:30;;;;;;;;;;;21.70;90.00;;;;;;4171270;28;19975;-53
2023/08/03 10:05:14;;;;;;;;;;;21.80;90.10;;;;;;4171721;28;20340;-49
2023/08/03 10:08:07;;;;;;;;;;;21.80;90.20;;;;;;4171127;28;20022;-51
2023/08/03 10:10:49;;;;;;;;;;;21.80;90.20;;;;;;4171753;28;19940;-52
2023/08/03 10:13:33;;;;;;;;;;;21.80;90.20;;;;;;4171667;28;19935;-53
2023/08/03 10:16:15;;;;;;;;;;;21.90;90.20;;;;;;4156479;28;20399;-52
2023/08/03 10:18:57;;;;;;;;;;;21.90;90.10;;;;;;4171023;28;19974;-54
2023/08/03 10:21:40;;;;;;;;;;;21.90;90.00;;;;;;4171119;28;20063;-50
2023/08/03 10:24:21;;;;;;;;;;;21.90;90.00;;;;;;4171750;28;20287;-51
2023/08/03 10:27:16;;;;;;;;;;;21.90;90.30;;;;;;4157999;28;20386;-53
2023/08/03 10:30:04;;;;;;;;;;;21.90;89.90;;;;;;4152904;28;20014;-53
2023/08/03 10:32:51;;;;;;;;;;;21.90;89.90;;;;;;4187116;28;19932;-54
2023/08/03 10:35:40;;;;;;;;;;;21.90;89.90;;;;;;4187259;28;19935;-50
2023/08/03 10:38:22;;;;;;;;;;;21.90;90.30;;;;;;4187019;28;19935;-50
2023/08/03 10:41:21;;;;;;;;;;;21.90;89.80;;;;;;4186976;28;19935;-51
2023/08/03 10:44:20;;;;;;;;;;;21.90;89.80;;;;;;4162724;28;20014;-55
2023/08/03 10:47:01;;;;;;;;;;;21.90;89.80;;;;;;4169425;28;19931;-52
2023/08/03 10:49:53;;;;;;;;;;;21.90;89.70;;;;;;4168019;28;19932;-50
2023/08/03 10:52:35;;;;;;;;;;;21.90;89.70;;;;;;4169706;28;19955;-54
2023/08/03 10:55:20;;;;;;;;;;;21.90;89.90;;;;;;4156956;28;19936;-52
2023/08/03 10:58:01;;;;;;;;;;;21.80;89.90;;;;;;4146481;28;20067;-50
2023/08/03 11:00:43;;;;;;;;;;;21.90;90.00;;;;;;4187149;28;19932;-51
2023/08/03 11:03:35;;;;;;;;;;;21.90;90.00;;;;;;4186535;28;19931;-51
2023/08/03 11:06:16;;;;;;;;;;;21.90;90.00;;;;;;4173237;28;19939;-50
2023/08/03 11:08:58;;;;;;;;;;;21.90;90.50;;;;;;4174752;28;19932;-52
2023/08/03 11:11:40;;;;;;;;;;;21.90;90.10;;;;;;4175978;28;19936;-53
2023/08/03 11:14:21;;;;;;;;;;;21.90;90.10;;;;;;4163385;28;20383;-55
2023/08/03 11:17:03;;;;;;;;;;;21.90;90.10;;;;;;4177763;28;19932;-51
2023/08/03 11:19:44;;;;;;;;;;;21.90;90.10;;;;;;4170097;28;19931;-51
2023/08/03 11:22:25;;;;;;;;;;;21.90;90.30;;;;;;4157339;28;19979;-55
2023/08/03 11:25:08;;;;;;;;;;;22.00;90.30;;;;;;4186823;28;20398;-54
2023/08/03 11:27:51;;;;;;;;;;;22.00;90.20;;;;;;4186121;28;19999;-52
2023/08/03 11:30:32;;;;;;;;;;;22.00;90.20;;;;;;4186914;28;19978;-54
2023/08/03 11:33:13;;;;;;;;;;;22.00;90.20;;;;;;4186068;28;19936;-54
2023/08/03 11:35:55;;;;;;;;;;;22.00;90.20;;;;;;4187181;28;20296;-52
2023/08/03 11:38:36;;;;;;;;;;;22.00;90.10;;;;;;4186636;28;19931;-53
2023/08/03 11:41:20;;;;;;;;;;;22.10;90.50;;;;;;4187167;28;19935;-52
2023/08/03 11:44:11;;;;;;;;;;;22.00;90.00;;;;;;4186805;28;19932;-52
2023/08/03 11:47:01;;;;;;;;;;;22.10;90.10;;;;;;4167514;28;19978;-51
2023/08/03 11:49:43;;;;;;;;;;;22.10;90.00;;;;;;4177940;28;20078;-50
2023/08/03 11:52:23;;;;;;;;;;;22.10;90.10;;;;;;4189775;28;20018;-50
2023/08/03 11:55:04;;;;;;;;;;;22.10;90.00;;;;;;4188513;28;19936;-55
2023/08/03 12:00:46;;;;;;;;;;;22.10;89.90;;;;;;4180399;28;19935;-51
2023/08/03 12:03:31;;;;;;;;;;;22.20;89.80;;;;;;4172255;28;20291;-54
2023/08/03 12:06:12;;;;;;;;;;;22.20;89.70;;;;;;4157154;28;20295;-54
2023/08/03 12:09:17;;;;;;;;;;;22.20;89.60;;;;;;4156016;28;20355;-54
2023/08/03 12:12:02;;;;;;;;;;;22.20;89.40;;;;;;4172638;28;20680;-54
2023/08/03 12:14:44;;;;;;;;;;;22.30;89.20;;;;;;4169590;28;19939;-54
2023/08/03 12:17:25;;;;;;;;;;;22.30;88.90;;;;;;4170460;28;19932;-53
2023/08/03 12:20:07;;;;;;;;;;;22.30;88.40;;;;;;4172573;28;19936;-55
2023/08/03 12:22:48;;;;;;;;;;;22.40;88.30;;;;;;4171609;28;19935;-51
2023/08/03 12:25:29;;;;;;;;;;;22.40;88.20;;;;;;4172774;28;20298;-54
2023/08/03 12:28:11;;;;;;;;;;;22.40;88.60;;;;;;4171971;28;20406;-54
2023/08/03 12:30:53;;;;;;;;;;;22.40;87.50;;;;;;4189531;28;19931;-51
2023/08/03 12:33:34;;;;;;;;;;;22.40;87.20;;;;;;4188829;28;19935;-52
2023/08/03 12:36:17;;;;;;;;;;;22.50;87.10;;;;;;4189408;28;20041;-55
2023/08/03 12:38:57;;;;;;;;;;;22.50;87.10;;;;;;4154922;28;20292;-54
2023/08/03 12:41:38;;;;;;;;;;;22.50;87.20;;;;;;4155796;28;20391;-55
2023/08/03 12:44:20;;;;;;;;;;;22.60;87.30;;;;;;4155797;28;19932;-54
2023/08/03 12:47:01;;;;;;;;;;;22.60;87.40;;;;;;4155893;28;20406;-53
2023/08/03 12:49:47;;;;;;;;;;;22.60;87.50;;;;;;4154902;28;20062;-55
2023/08/03 12:52:27;;;;;;;;;;;22.60;87.20;;;;;;4155437;28;19932;-53
2023/08/03 12:55:08;;;;;;;;;;;22.60;87.20;;;;;;4154633;28;19952;-54
2023/08/03 12:57:50;;;;;;;;;;;22.60;87.20;;;;;;4155453;28;19940;-51
2023/08/03 13:00:33;;;;;;;;;;;22.60;87.10;;;;;;4169877;28;24175;-54
2023/08/03 13:03:15;;;;;;;;;;;22.60;87.00;;;;;;4170430;28;19931;-54
2023/08/03 13:05:56;;;;;;;;;;;22.60;86.80;;;;;;4172156;28;20395;-54
2023/08/03 13:08:36;;;;;;;;;;;22.60;87.00;;;;;;4171713;28;19950;-55
2023/08/03 13:11:17;;;;;;;;;;;22.60;86.90;;;;;;4170353;28;19974;-54
2023/08/03 13:13:58;;;;;;;;;;;22.70;87.00;;;;;;4157146;28;19936;-54
2023/08/03 13:16:39;;;;;;;;;;;22.60;86.80;;;;;;4169083;28;20029;-55
2023/08/03 13:19:21;;;;;;;;;;;22.60;86.90;;;;;;4187594;28;20334;-55
2023/08/03 13:22:01;;;;;;;;;;;22.70;86.90;;;;;;4187500;28;19935;-54
2023/08/03 13:24:42;;;;;;;;;;;22.60;86.70;;;;;;4188512;28;19931;-54
2023/08/03 13:27:25;;;;;;;;;;;22.60;86.80;;;;;;4183936;28;19936;-52
2023/08/03 13:30:06;;;;;;;;;;;22.60;86.80;;;;;;4169117;28;19947;-55
2023/08/03 13:32:47;;;;;;;;;;;22.60;86.90;;;;;;4171039;28;19967;-52
2023/08/03 13:35:29;;;;;;;;;;;22.60;86.70;;;;;;4170660;28;19932;-54
2023/08/03 13:38:10;;;;;;;;;;;22.60;86.50;;;;;;4154062;28;19939;-55
2023/08/03 13:40:51;;;;;;;;;;;22.60;86.50;;;;;;4156660;28;19932;-54
2023/08/03 13:43:32;;;;;;;;;;;22.60;86.70;;;;;;4187820;28;19936;-55
2023/08/03 13:46:13;;;;;;;;;;;22.60;86.50;;;;;;4188283;28;19931;-53
2023/08/03 13:48:55;;;;;;;;;;;22.60;86.60;;;;;;4187912;28;19935;-51
2023/08/03 13:51:37;;;;;;;;;;;22.60;86.50;;;;;;4187990;28;19935;-52
2023/08/03 13:54:19;;;;;;;;;;;22.60;86.40;;;;;;4187685;28;19977;-54
2023/08/03 13:57:00;;;;;;;;;;;22.60;86.30;;;;;;4187494;28;19931;-52
2023/08/03 13:59:40;;;;;;;;;;;22.60;86.40;;;;;;4141940;28;19935;-54
2023/08/03 14:02:22;;;;;;;;;;;22.50;86.40;;;;;;4154236;28;19939;-53
2023/08/03 14:05:06;;;;;;;;;;;22.50;86.60;;;;;;4162349;28;19932;-53
2023/08/03 14:07:48;;;;;;;;;;;22.50;86.60;;;;;;4169337;28;19936;-55
2023/08/03 14:10:31;;;;;;;;;;;22.50;87.60;;;;;;4187848;28;20073;-54
2023/08/03 14:13:14;;;;;;;;;;;22.50;86.70;;;;;;4186599;28;20398;-55
2023/08/03 14:15:55;;;;;;;;;;;22.50;87.80;;;;;;4187096;28;20494;-52
2023/08/03 14:18:39;;;;;;;;;;;22.40;86.90;;;;;;4187983;28;19932;-54
2023/08/03 14:21:22;;;;;;;;;;;22.40;87.00;;;;;;4172129;28;19932;-51
2023/08/03 14:24:24;;;;;;;;;;;22.40;87.20;;;;;;4169116;28;19936;-52
2023/08/03 14:27:07;;;;;;;;;;;22.40;87.40;;;;;;4156501;28;19985;-51
2023/08/03 14:29:48;;;;;;;;;;;22.30;87.50;;;;;;4061371;28;19936;-56
2023/08/03 14:32:28;;;;;;;;;;;22.30;87.70;;;;;;4152406;28;19932;-52
2023/08/03 14:35:09;;;;;;;;;;;22.30;87.80;;;;;;4152868;28;20443;-54
2023/08/03 14:37:53;;;;;;;;;;;22.30;88.10;;;;;;4145170;28;19932;-54
2023/08/03 14:40:35;;;;;;;;;;;22.20;88.10;;;;;;4154127;28;20407;-55
2023/08/03 14:43:16;;;;;;;;;;;22.20;88.40;;;;;;4143194;28;19932;-54
2023/08/03 14:45:56;;;;;;;;;;;22.20;88.60;;;;;;4169851;28;19931;-55
2023/08/03 14:48:44;;;;;;;;;;;22.20;88.50;;;;;;4154489;28;20483;-55
2023/08/03 14:51:27;;;;;;;;;;;22.20;88.60;;;;;;4160411;28;20295;-55
2023/08/03 14:54:11;;;;;;;;;;;22.10;88.70;;;;;;4170696;28;19951;-54
2023/08/03 14:56:53;;;;;;;;;;;22.20;88.80;;;;;;4169340;28;19936;-56
2023/08/03 14:59:34;;;;;;;;;;;22.10;88.70;;;;;;4170160;28;20066;-55
2023/08/03 15:02:15;;;;;;;;;;;22.10;88.70;;;;;;4170844;28;19975;-56
2023/08/03 15:04:57;;;;;;;;;;;22.10;88.80;;;;;;4171174;28;19931;-56
2023/08/03 15:07:38;;;;;;;;;;;22.10;88.80;;;;;;4158106;28;19974;-56
2023/08/03 15:10:19;;;;;;;;;;;22.10;88.80;;;;;;4170453;28;19947;-56
2023/08/03 15:13:01;;;;;;;;;;;22.10;88.90;;;;;;4170147;28;19993;-53
2023/08/03 15:15:42;;;;;;;;;;;22.10;88.90;;;;;;4170171;28;20342;-56
2023/08/03 15:18:31;;;;;;;;;;;22.10;88.90;;;;;;4171736;28;19944;-55
2023/08/03 15:21:17;;;;;;;;;;;22.10;88.90;;;;;;4172901;28;19943;-55
2023/08/03 15:24:01;;;;;;;;;;;22.10;89.70;;;;;;4173088;28;19947;-54
2023/08/03 15:26:42;;;;;;;;;;;22.10;88.80;;;;;;4173980;28;19956;-55
2023/08/03 15:29:35;;;;;;;;;;;22.00;88.80;;;;;;4144288;28;21487;-53
2023/08/03 15:32:19;;;;;;;;;;;22.00;88.80;;;;;;4144576;28;20319;-53
2023/08/03 15:35:03;;;;;;;;;;;22.00;88.90;;;;;;4157216;28;20018;-55
2023/08/03 15:37:47;;;;;;;;;;;22.00;89.00;;;;;;4156530;28;19981;-54
2023/08/03 15:40:30;;;;;;;;;;;22.00;89.00;;;;;;4157957;28;20398;-52
2023/08/03 15:43:18;;;;;;;;;;;22.00;89.90;;;;;;4156788;28;19936;-52
2023/08/03 15:46:03;;;;;;;;;;;22.00;88.90;;;;;;4168551;28;19973;-54
2023/08/03 15:48:47;;;;;;;;;;;22.00;88.90;;;;;;4160667;28;19936;-53